createdAt,value
2024-02-08T00:02:10.062Z,6.54
2024-02-08T00:04:38.283Z,6.56
2024-02-08T00:08:07.887Z,6.55
2024-02-08T00:10:34.507Z,6.55
2024-02-08T00:13:01.066Z,6.66
2024-02-08T00:15:30.462Z,6.49
2024-02-08T00:17:57.977Z,6.45
2024-02-08T00:20:25.176Z,6.46
2024-02-08T00:22:54.823Z,6.62
2024-02-08T00:25:24.521Z,6.66
2024-02-08T00:27:53.305Z,6.73
2024-02-08T00:30:20.308Z,6.78
2024-02-08T00:32:47.661Z,6.74
2024-02-08T00:35:20.975Z,6.71
2024-02-08T00:37:48.702Z,6.68
2024-02-08T00:40:19.028Z,6.69
2024-02-08T00:42:48.746Z,6.62
2024-02-08T00:45:16.680Z,6.67
2024-02-08T00:47:43.166Z,6.73
2024-02-08T00:50:10.072Z,6.63
2024-02-08T00:52:37.605Z,6.72
2024-02-08T00:55:04.422Z,6.79
2024-02-08T00:57:33.595Z,6.63
2024-02-08T01:00:01.117Z,6.58
2024-02-08T01:02:30.785Z,6.54
2024-02-08T01:04:57.510Z,6.39
2024-02-08T01:07:24.129Z,6.27
2024-02-08T01:09:50.661Z,6.33
2024-02-08T01:12:19.939Z,6.50
2024-02-08T01:14:49.192Z,6.50
2024-02-08T01:17:15.949Z,6.67
2024-02-08T01:19:43.270Z,6.74
2024-02-08T01:22:09.854Z,6.70
2024-02-08T01:24:36.293Z,6.71
2024-02-08T01:27:02.768Z,6.56
2024-02-08T01:29:29.354Z,6.69
2024-02-08T01:31:55.960Z,6.76
2024-02-08T01:34:30.480Z,6.66
2024-02-08T01:37:00.712Z,6.71
2024-02-08T01:39:27.315Z,6.79
2024-02-08T01:41:53.931Z,6.78
2024-02-08T01:44:22.736Z,6.84
2024-02-08T01:46:49.960Z,6.86
2024-02-08T01:49:24.052Z,6.91
2024-02-08T01:52:01.188Z,6.97
2024-02-08T01:54:30.000Z,7.16
2024-02-08T01:57:00.072Z,6.95
2024-02-08T01:59:28.952Z,6.90
2024-02-08T02:01:58.759Z,6.97
2024-02-08T02:04:25.274Z,7.01
2024-02-08T02:06:51.941Z,6.96
2024-02-08T02:09:26.066Z,6.91
2024-02-08T02:11:56.273Z,6.91
2024-02-08T02:14:30.392Z,6.93
2024-02-08T02:17:13.458Z,6.90
2024-02-08T02:19:41.262Z,6.96
2024-02-08T02:22:10.025Z,6.98
2024-02-08T02:24:38.092Z,6.91
2024-02-08T02:27:06.705Z,6.98
2024-02-08T02:29:34.564Z,6.96
2024-02-08T02:32:02.688Z,6.88
2024-02-08T02:34:32.027Z,6.94
2024-02-08T02:36:59.802Z,6.98
2024-02-08T02:39:32.171Z,6.96
2024-02-08T02:41:59.853Z,7.11
2024-02-08T02:44:28.953Z,7.05
2024-02-08T02:46:57.936Z,7.07
2024-02-08T02:49:25.114Z,7.00
2024-02-08T02:51:53.407Z,7.16
2024-02-08T02:54:23.597Z,7.21
2024-02-08T02:56:51.645Z,7.32
2024-02-08T02:59:19.191Z,7.26
2024-02-08T03:01:50.367Z,7.31
2024-02-08T03:04:17.765Z,7.45
2024-02-08T03:06:46.698Z,7.19
2024-02-08T03:09:16.820Z,7.31
2024-02-08T03:11:44.502Z,7.54
2024-02-08T03:14:11.590Z,7.54
2024-02-08T03:16:38.869Z,7.38
2024-02-08T03:19:09.282Z,7.52
2024-02-08T03:21:41.292Z,7.51
2024-02-08T03:24:11.398Z,7.40
2024-02-08T03:26:42.047Z,7.31
2024-02-08T03:29:12.704Z,7.26
2024-02-08T03:31:47.228Z,7.25
2024-02-08T03:34:31.565Z,7.28
2024-02-08T03:36:58.775Z,7.15
2024-02-08T03:39:28.828Z,7.16
2024-02-08T03:41:57.254Z,7.19
2024-02-08T03:44:23.899Z,7.16
2024-02-08T03:46:53.276Z,7.16
2024-02-08T03:49:20.279Z,7.14
2024-02-08T03:51:49.631Z,7.09
2024-02-08T03:54:19.671Z,7.21
2024-02-08T03:56:51.088Z,7.06
2024-02-08T03:59:28.346Z,7.02
2024-02-08T04:02:02.444Z,7.19
2024-02-08T04:05:00.945Z,7.16
2024-02-08T04:08:03.262Z,7.16
2024-02-08T04:10:36.097Z,7.16
2024-02-08T04:13:21.520Z,7.18
2024-02-08T04:16:06.936Z,7.30
2024-02-08T04:18:52.958Z,7.28
2024-02-08T04:21:38.353Z,7.20
2024-02-08T04:24:23.822Z,7.09
2024-02-08T04:27:08.662Z,7.23
2024-02-08T04:29:53.492Z,7.25
2024-02-08T04:32:38.623Z,7.33
2024-02-08T04:35:24.315Z,7.33
2024-02-08T04:38:09.848Z,7.41
2024-02-08T04:40:55.134Z,7.24
2024-02-08T04:43:40.295Z,7.39
2024-02-08T04:46:25.232Z,7.45
2024-02-08T04:49:10.052Z,7.48
2024-02-08T04:51:55.098Z,7.27
2024-02-08T04:54:21.610Z,7.19
2024-02-08T04:56:48.312Z,7.12
2024-02-08T05:01:44.254Z,7.23
2024-02-08T05:04:10.801Z,7.21
2024-02-08T05:06:37.454Z,7.27
2024-02-08T05:09:04.150Z,7.18
2024-02-08T05:11:30.939Z,7.15
2024-02-08T05:14:04.026Z,7.17
2024-02-08T05:16:37.859Z,7.07
2024-02-08T05:19:10.793Z,6.98
2024-02-08T05:21:42.976Z,6.92
2024-02-08T05:24:09.954Z,7.02
2024-02-08T05:26:36.787Z,6.84
2024-02-08T05:29:03.399Z,6.53
2024-02-08T05:31:31.245Z,6.60
2024-02-08T05:33:58.369Z,6.74
2024-02-08T05:36:25.466Z,6.84
2024-02-08T05:38:57.615Z,6.91
2024-02-08T05:41:24.453Z,6.91
2024-02-08T05:43:53.031Z,6.70
2024-02-08T05:46:29.911Z,6.93
2024-02-08T05:49:05.650Z,6.84
2024-02-08T05:51:33.327Z,6.71
2024-02-08T05:54:03.591Z,6.73
2024-02-08T05:56:31.762Z,6.88
2024-02-08T05:59:02.556Z,6.96
2024-02-08T06:01:32.764Z,6.99
2024-02-08T06:04:03.489Z,6.98
2024-02-08T06:06:43.603Z,7.10
2024-02-08T06:09:10.760Z,7.29
2024-02-08T06:11:40.378Z,7.36
2024-02-08T06:14:14.151Z,7.29
2024-02-08T06:16:49.400Z,7.45
2024-02-08T06:19:16.965Z,7.53
2024-02-08T06:21:44.508Z,7.58
2024-02-08T06:24:24.497Z,7.48
2024-02-08T06:26:57.082Z,7.60
2024-02-08T06:29:28.095Z,7.70
2024-02-08T06:32:04.066Z,7.69
2024-02-08T06:34:53.057Z,7.61
2024-02-08T06:37:31.015Z,7.86
2024-02-08T06:39:58.955Z,7.60
2024-02-08T06:42:41.522Z,7.37
2024-02-08T06:45:26.150Z,7.35
2024-02-08T06:47:58.152Z,7.38
2024-02-08T06:50:43.169Z,7.28
2024-02-08T06:53:27.870Z,7.40
2024-02-08T06:56:13.354Z,7.12
2024-02-08T06:59:01.256Z,7.26
2024-02-08T07:01:47.149Z,7.04
2024-02-08T07:04:32.384Z,7.21
2024-02-08T07:07:17.553Z,7.08
2024-02-08T07:10:02.392Z,7.18
2024-02-08T07:12:47.361Z,7.22
2024-02-08T07:15:32.222Z,7.14
2024-02-08T07:18:17.319Z,7.23
2024-02-08T07:21:02.397Z,7.23
2024-02-08T07:23:47.319Z,7.36
2024-02-08T07:26:35.751Z,7.31
2024-02-08T07:29:21.773Z,7.38
2024-02-08T07:32:07.326Z,7.33
2024-02-08T07:34:53.142Z,7.39
2024-02-08T07:37:19.960Z,7.46
2024-02-08T07:40:02.117Z,7.42
2024-02-08T07:42:42.599Z,7.61
2024-02-08T07:45:14.097Z,7.50
2024-02-08T07:47:41.427Z,7.43
2024-02-08T07:50:09.545Z,7.43
2024-02-08T07:52:56.872Z,7.44
2024-02-08T07:55:43.307Z,7.69
2024-02-08T07:58:10.114Z,7.57
2024-02-08T08:00:39.579Z,7.63
2024-02-08T08:03:11.054Z,7.49
2024-02-08T08:05:42.752Z,7.55
2024-02-08T08:08:25.615Z,7.46
2024-02-08T08:11:07.189Z,7.45
2024-02-08T08:13:54.725Z,7.46
2024-02-08T08:16:48.133Z,7.50
2024-02-08T08:19:21.039Z,7.47
2024-02-08T08:22:05.133Z,7.47
2024-02-08T08:24:44.353Z,7.45
2024-02-08T08:27:29.038Z,7.49
2024-02-08T08:29:59.965Z,7.39
2024-02-08T08:32:33.665Z,7.46
2024-02-08T08:35:21.444Z,7.48
2024-02-08T08:38:00.759Z,7.47
2024-02-08T08:40:40.444Z,7.48
2024-02-08T08:43:20.341Z,7.44
2024-02-08T08:45:51.845Z,7.60
2024-02-08T08:48:22.441Z,7.40
2024-02-08T08:50:58.932Z,7.51
2024-02-08T08:53:29.860Z,7.70
2024-02-08T08:55:57.082Z,7.66
2024-02-08T08:58:28.882Z,7.56
2024-02-08T09:01:14.930Z,7.58
2024-02-08T09:03:42.168Z,7.61
2024-02-08T09:06:13.285Z,7.50
2024-02-08T09:08:56.277Z,7.47
2024-02-08T09:11:26.171Z,7.31
2024-02-08T09:13:54.279Z,7.40
2024-02-08T09:16:24.986Z,7.19
2024-02-08T09:19:03.347Z,7.49
2024-02-08T09:21:34.781Z,7.45
2024-02-08T09:24:05.790Z,7.49
2024-02-08T09:26:50.278Z,7.51
2024-02-08T09:29:28.685Z,7.58
2024-02-08T09:31:59.843Z,7.56
2024-02-08T09:34:42.317Z,7.69
2024-02-08T09:37:10.262Z,7.65
2024-02-08T09:39:54.976Z,7.82
2024-02-08T09:42:31.583Z,7.68
2024-02-08T09:45:17.448Z,7.77
2024-02-08T09:47:54.263Z,7.70
2024-02-08T09:50:37.093Z,7.79
2024-02-08T09:53:20.501Z,7.75
2024-02-08T09:55:56.338Z,7.87
2024-02-08T09:58:42.939Z,7.92
2024-02-08T10:01:24.068Z,7.89
2024-02-08T10:04:06.366Z,8.08
2024-02-08T10:06:47.050Z,7.87
2024-02-08T10:09:33.988Z,8.03
2024-02-08T10:12:07.992Z,7.82
2024-02-08T10:14:35.194Z,8.02
2024-02-08T10:17:26.228Z,8.02
2024-02-08T10:20:29.961Z,8.01
2024-02-08T10:23:10.477Z,8.00
2024-02-08T10:25:55.965Z,8.00
2024-02-08T10:28:25.257Z,8.05
2024-02-08T10:30:58.934Z,8.02
2024-02-08T10:33:26.179Z,7.93
2024-02-08T10:35:59.486Z,7.96
2024-02-08T10:38:31.288Z,8.01
2024-02-08T10:40:59.112Z,8.18
2024-02-08T10:43:26.512Z,8.18
2024-02-08T10:45:55.799Z,8.32
2024-02-08T10:48:24.589Z,8.25
2024-02-08T10:50:51.750Z,8.18
2024-02-08T10:53:38.663Z,8.34
2024-02-08T10:56:15.489Z,8.36
2024-02-08T10:59:01.399Z,8.32
2024-02-08T11:01:39.153Z,8.50
2024-02-08T11:04:18.966Z,8.57
2024-02-08T11:07:09.468Z,8.76
2024-02-08T11:09:37.124Z,8.76
2024-02-08T11:12:11.553Z,8.91
2024-02-08T11:14:44.457Z,8.93
2024-02-08T11:17:21.631Z,8.84
2024-02-08T11:19:50.964Z,8.89
2024-02-08T11:22:36.115Z,9.00
2024-02-08T11:25:20.434Z,8.94
2024-02-08T11:27:51.060Z,9.24
2024-02-08T11:30:21.842Z,9.18
2024-02-08T11:33:03.649Z,9.14
2024-02-08T11:35:36.448Z,9.24
2024-02-08T11:38:11.867Z,9.35
2024-02-08T11:40:38.560Z,9.28
2024-02-08T11:43:09.293Z,9.44
2024-02-08T11:45:36.397Z,9.28
2024-02-08T11:48:05.604Z,9.32
2024-02-08T11:50:37.791Z,9.36
2024-02-08T11:53:07.494Z,9.19
2024-02-08T11:55:36.987Z,9.10
2024-02-08T11:58:11.280Z,9.24
2024-02-08T12:00:46.728Z,9.28
2024-02-08T12:03:17.811Z,9.33
2024-02-08T12:05:53.039Z,9.44
2024-02-08T12:08:20.512Z,9.47
2024-02-08T12:10:52.282Z,9.12
2024-02-08T12:13:27.128Z,9.18
2024-02-08T12:15:57.955Z,9.39
2024-02-08T12:18:30.014Z,9.26
2024-02-08T12:20:59.236Z,9.29
2024-02-08T12:23:31.765Z,9.43
2024-02-08T12:26:02.887Z,9.16
2024-02-08T12:28:33.792Z,9.29
2024-02-08T12:31:00.737Z,9.22
2024-02-08T12:33:31.888Z,9.53
2024-02-08T12:36:01.286Z,9.42
2024-02-08T12:38:28.388Z,9.37
2024-02-08T12:41:02.489Z,9.29
2024-02-08T12:43:29.041Z,9.33
2024-02-08T12:45:56.007Z,9.44
2024-02-08T12:48:22.850Z,9.45
2024-02-08T12:50:54.015Z,9.38
2024-02-08T12:53:22.174Z,9.60
2024-02-08T12:55:49.161Z,9.67
2024-02-08T12:58:19.703Z,9.49
2024-02-08T13:01:05.892Z,9.22
2024-02-08T13:03:35.501Z,9.26
2024-02-08T13:06:05.394Z,9.34
2024-02-08T13:08:35.293Z,9.49
2024-02-08T13:11:02.804Z,9.62
2024-02-08T13:13:30.215Z,9.54
2024-02-08T13:16:06.492Z,9.37
2024-02-08T13:18:33.516Z,9.35
2024-02-08T13:21:01.426Z,9.60
2024-02-08T13:23:31.210Z,9.58
2024-02-08T13:25:59.172Z,9.85
2024-02-08T13:28:26.412Z,9.81
2024-02-08T13:30:54.643Z,9.83
2024-02-08T13:33:22.127Z,9.94
2024-02-08T13:35:56.756Z,9.94
2024-02-08T13:38:37.892Z,9.79
2024-02-08T13:41:34.047Z,9.82
2024-02-08T13:44:01.100Z,10.02
2024-02-08T13:46:43.074Z,9.76
2024-02-08T13:49:16.611Z,9.76
2024-02-08T13:51:47.665Z,10.01
2024-02-08T13:54:29.879Z,9.85
2024-02-08T13:57:06.887Z,10.09
2024-02-08T13:59:42.856Z,10.16
2024-02-08T14:02:15.669Z,10.15
2024-02-08T14:05:00.475Z,10.06
2024-02-08T14:07:32.136Z,10.22
2024-02-08T14:10:04.376Z,10.20
2024-02-08T14:12:36.544Z,10.57
2024-02-08T14:15:07.854Z,10.38
2024-02-08T14:17:45.456Z,10.22
2024-02-08T14:20:36.244Z,10.45
2024-02-08T14:23:12.279Z,10.31
2024-02-08T14:25:49.743Z,10.11
2024-02-08T14:28:25.746Z,10.09
2024-02-08T14:30:56.915Z,10.00
2024-02-08T14:33:27.291Z,10.13
2024-02-08T14:36:08.793Z,10.31
2024-02-08T14:38:47.476Z,10.22
2024-02-08T14:41:36.863Z,10.25
2024-02-08T14:44:13.116Z,10.05
2024-02-08T14:46:49.622Z,10.03
2024-02-08T14:49:19.335Z,9.94
2024-02-08T14:51:53.656Z,9.95
2024-02-08T14:54:20.488Z,10.04
2024-02-08T14:57:04.949Z,9.84
2024-02-08T14:59:50.850Z,9.86
2024-02-08T15:02:23.882Z,9.92
2024-02-08T15:04:55.379Z,10.09
2024-02-08T15:07:41.468Z,10.17
2024-02-08T15:10:11.265Z,10.31
2024-02-08T15:12:54.221Z,10.36
2024-02-08T15:15:30.918Z,10.41
2024-02-08T15:18:12.591Z,10.47
2024-02-08T15:20:46.349Z,10.53
2024-02-08T15:23:32.676Z,10.64
2024-02-08T15:26:04.777Z,10.72
2024-02-08T15:28:43.129Z,10.70
2024-02-08T15:31:39.169Z,10.83
2024-02-08T15:34:20.694Z,10.93
2024-02-08T15:37:13.340Z,10.93
2024-02-08T15:39:39.990Z,11.24
2024-02-08T15:42:19.534Z,11.35
2024-02-08T15:44:48.530Z,11.43
2024-02-08T15:47:16.656Z,11.51
2024-02-08T15:49:46.669Z,11.65
2024-02-08T15:52:17.155Z,11.75
2024-02-08T15:54:46.166Z,11.77
2024-02-08T15:57:14.107Z,11.75
2024-02-08T15:59:46.863Z,11.79
2024-02-08T16:02:19.184Z,11.75
2024-02-08T16:04:52.509Z,11.96
2024-02-08T16:07:29.045Z,12.03
2024-02-08T16:09:59.140Z,11.93
2024-02-08T16:12:48.317Z,12.04
2024-02-08T16:15:18.803Z,12.07
2024-02-08T16:18:11.452Z,12.09
2024-02-08T16:20:40.374Z,11.96
2024-02-08T16:23:15.079Z,12.03
2024-02-08T16:25:46.013Z,12.19
2024-02-08T16:28:21.903Z,11.98
2024-02-08T16:31:01.770Z,11.96
2024-02-08T16:33:42.504Z,12.12
2024-02-08T16:36:27.908Z,12.18
2024-02-08T16:38:59.120Z,12.15
2024-02-08T16:41:32.663Z,12.25
2024-02-08T16:44:04.978Z,12.14
2024-02-08T16:46:38.892Z,12.27
2024-02-08T16:49:07.642Z,12.27
2024-02-08T16:51:46.347Z,12.27
2024-02-08T16:54:21.089Z,12.28
2024-02-08T16:56:48.933Z,12.35
2024-02-08T16:59:28.567Z,12.44
2024-02-08T17:02:28.114Z,12.55
2024-02-08T17:05:17.427Z,12.40
2024-02-08T17:07:44.604Z,12.28
2024-02-08T17:10:23.491Z,12.41
2024-02-08T17:13:09.609Z,12.50
2024-02-08T17:15:50.027Z,12.32
2024-02-08T17:18:25.513Z,12.25
2024-02-08T17:21:06.512Z,12.39
2024-02-08T17:24:02.893Z,12.36
2024-02-08T17:26:37.690Z,12.36
2024-02-08T17:29:11.712Z,12.36
2024-02-08T17:31:44.566Z,12.40
2024-02-08T17:34:13.941Z,12.47
2024-02-08T17:36:47.163Z,12.52
2024-02-08T17:39:36.587Z,12.43
2024-02-08T17:42:09.141Z,12.46
2024-02-08T17:44:41.022Z,12.43
2024-02-08T17:47:11.598Z,12.59
2024-02-08T17:49:38.668Z,12.35
2024-02-08T17:52:07.710Z,12.48
2024-02-08T17:54:46.328Z,12.45
2024-02-08T17:57:13.793Z,12.60
2024-02-08T17:59:44.709Z,12.34
2024-02-08T18:02:15.993Z,12.50
2024-02-08T18:04:43.436Z,12.46
2024-02-08T18:07:14.084Z,12.39
2024-02-08T18:09:43.430Z,12.53
2024-02-08T18:12:35.231Z,12.53
2024-02-08T18:15:14.257Z,12.64
2024-02-08T18:17:46.930Z,12.62
2024-02-08T18:20:16.857Z,12.55
2024-02-08T18:22:46.335Z,12.57
2024-02-08T18:25:22.435Z,12.72
2024-02-08T18:27:49.312Z,12.50
2024-02-08T18:30:19.789Z,12.62
2024-02-08T18:32:48.056Z,12.57
2024-02-08T18:35:18.129Z,12.53
2024-02-08T18:37:48.176Z,12.43
2024-02-08T18:40:27.685Z,12.53
2024-02-08T18:42:58.214Z,12.70
2024-02-08T18:45:28.406Z,12.66
2024-02-08T18:48:04.972Z,12.79
2024-02-08T18:50:31.680Z,12.71
2024-02-08T18:52:59.817Z,12.51
2024-02-08T18:55:40.363Z,12.48
2024-02-08T18:58:10.228Z,12.68
2024-02-08T19:00:38.411Z,12.57
2024-02-08T19:03:08.842Z,12.59
2024-02-08T19:05:42.222Z,12.74
2024-02-08T19:08:15.179Z,12.70
2024-02-08T19:10:44.793Z,12.66
2024-02-08T19:13:11.661Z,12.71
2024-02-08T19:15:38.176Z,12.61
2024-02-08T19:18:16.079Z,12.75
2024-02-08T19:20:45.468Z,12.50
2024-02-08T19:23:13.499Z,12.53
2024-02-08T19:25:41.257Z,12.57
2024-02-08T19:28:08.351Z,12.57
2024-02-08T19:30:35.041Z,12.60
2024-02-08T19:33:06.128Z,12.52
2024-02-08T19:35:35.010Z,12.54
2024-02-08T19:38:04.917Z,12.55
2024-02-08T19:40:32.975Z,12.54
2024-02-08T19:43:04.498Z,12.59
2024-02-08T19:45:34.614Z,12.50
2024-02-08T19:48:02.062Z,12.49
2024-02-08T19:50:30.006Z,12.64
2024-02-08T19:52:58.864Z,12.50
2024-02-08T19:55:31.703Z,12.54
2024-02-08T19:57:59.556Z,12.58
2024-02-08T20:00:32.273Z,12.61
2024-02-08T20:03:21.802Z,12.54
2024-02-08T20:05:49.101Z,12.65
2024-02-08T20:08:17.479Z,12.69
2024-02-08T20:10:47.427Z,12.79
2024-02-08T20:13:16.181Z,12.65
2024-02-08T20:15:43.597Z,12.72
2024-02-08T20:18:15.128Z,12.65
2024-02-08T20:20:42.053Z,12.63
2024-02-08T20:23:20.624Z,12.78
2024-02-08T20:25:49.842Z,12.64
2024-02-08T20:28:17.365Z,12.73
2024-02-08T20:30:49.234Z,12.85
2024-02-08T20:33:17.291Z,12.80
2024-02-08T20:35:44.223Z,12.72
2024-02-08T20:38:13.251Z,12.71
2024-02-08T20:40:41.993Z,12.66
2024-02-08T20:43:22.416Z,12.65
2024-02-08T20:45:52.669Z,12.63
2024-02-08T20:48:20.361Z,12.58
2024-02-08T20:50:52.277Z,12.50
2024-02-08T20:53:18.970Z,12.49
2024-02-08T20:55:48.448Z,12.31
2024-02-08T20:58:20.637Z,12.25
2024-02-08T21:00:52.864Z,12.11
2024-02-08T21:03:27.017Z,12.18
2024-02-08T21:05:56.023Z,12.06
2024-02-08T21:08:24.786Z,12.14
2024-02-08T21:10:53.453Z,12.13
2024-02-08T21:13:20.457Z,12.04
2024-02-08T21:15:50.778Z,11.94
2024-02-08T21:18:20.791Z,11.89
2024-02-08T21:20:50.459Z,11.95
2024-02-08T21:23:19.234Z,12.07
2024-02-08T21:25:47.425Z,12.17
2024-02-08T21:28:15.024Z,12.26
2024-02-08T21:30:43.873Z,12.26
2024-02-08T21:33:11.430Z,12.30
2024-02-08T21:35:38.558Z,12.33
2024-02-08T21:38:06.052Z,12.18
2024-02-08T21:40:41.471Z,12.19
2024-02-08T21:43:16.845Z,12.14
2024-02-08T21:45:45.403Z,12.23
2024-02-08T21:48:12.246Z,12.11
2024-02-08T21:50:41.607Z,12.02
2024-02-08T21:53:08.159Z,12.21
2024-02-08T21:55:34.792Z,12.14
2024-02-08T21:58:01.841Z,12.20
2024-02-08T22:00:33.905Z,12.25
2024-02-08T22:03:00.940Z,12.30
2024-02-08T22:05:28.342Z,12.30
2024-02-08T22:07:55.400Z,12.23
2024-02-08T22:10:22.170Z,12.08
2024-02-08T22:12:48.824Z,11.98
2024-02-08T22:15:19.833Z,11.80
2024-02-08T22:17:50.085Z,11.77
2024-02-08T22:20:17.477Z,11.73
2024-02-08T22:22:45.394Z,11.70
2024-02-08T22:25:16.643Z,11.65
2024-02-08T22:27:45.453Z,11.49
2024-02-08T22:30:13.057Z,11.61
2024-02-08T22:32:45.007Z,11.79
2024-02-08T22:35:12.348Z,11.87
2024-02-08T22:37:42.172Z,11.93
2024-02-08T22:40:12.207Z,12.00
2024-02-08T22:42:39.166Z,11.97
2024-02-08T22:45:10.805Z,11.94
2024-02-08T22:47:43.433Z,11.85
2024-02-08T22:50:14.670Z,11.87
2024-02-08T22:52:53.611Z,11.83
2024-02-08T22:55:24.768Z,11.98
2024-02-08T22:57:56.577Z,12.00
2024-02-08T23:00:26.614Z,12.03
2024-02-08T23:02:57.441Z,12.05
2024-02-08T23:05:28.230Z,11.96
2024-02-08T23:07:55.143Z,12.07
2024-02-08T23:10:21.784Z,12.08
2024-02-08T23:12:49.216Z,12.26
2024-02-08T23:15:17.100Z,12.16
2024-02-08T23:17:44.054Z,12.08
2024-02-08T23:20:15.203Z,12.23
2024-02-08T23:22:41.917Z,12.26
2024-02-08T23:25:11.597Z,12.31
2024-02-08T23:27:38.772Z,12.05
2024-02-08T23:30:10.564Z,12.29
2024-02-08T23:32:39.667Z,12.22
2024-02-08T23:35:13.405Z,12.24
2024-02-08T23:37:41.743Z,12.40
2024-02-08T23:40:15.535Z,12.35
2024-02-08T23:42:43.197Z,12.28
2024-02-08T23:45:13.508Z,12.28
2024-02-08T23:47:41.017Z,12.38
2024-02-08T23:50:10.463Z,12.39
2024-02-08T23:52:38.871Z,12.27
2024-02-08T23:55:07.068Z,12.43
2024-02-08T23:57:37.623Z,12.38
